sensor_id;sensor_type;location;lat;lon;timestamp;pressure;altitude;pressure_sealevel;temperature;humidity
18819;BME280;9537;45.594;9.294;2023-05-01T00:00:32;99528.78;;;17.34;75.08
18819;BME280;9537;45.594;9.294;2023-05-01T00:01:40;99529.22;;;17.31;75.53
18819;BME280;9537;45.594;9.294;2023-05-01T00:02:46;99535.59;;;17.30;75.40
18819;BME280;9537;45.594;9.294;2023-05-01T00:03:53;99525.97;;;17.29;75.77
18819;BME280;9537;45.594;9.294;2023-05-01T00:04:59;99527.22;;;17.26;75.74
18819;BME280;9537;45.594;9.294;2023-05-01T00:06:06;99530.09;;;17.25;75.89
18819;BME280;9537;45.594;9.294;2023-05-01T00:07:12;99523.94;;;17.24;76.14
18819;BME280;9537;45.594;9.294;2023-05-01T00:08:19;99528.66;;;17.22;76.36
18819;BME280;9537;45.594;9.294;2023-05-01T00:09:26;99527.03;;;17.21;76.17
18819;BME280;9537;45.594;9.294;2023-05-01T00:10:28;99525.19;;;17.22;75.93
18819;BME280;9537;45.594;9.294;2023-05-01T00:11:34;99524.97;;;17.23;76.01
18819;BME280;9537;45.594;9.294;2023-05-01T00:12:37;99529.50;;;17.23;75.88
18819;BME280;9537;45.594;9.294;2023-05-01T00:13:43;99530.53;;;17.22;76.07
18819;BME280;9537;45.594;9.294;2023-05-01T00:14:50;99523.56;;;17.21;75.89
18819;BME280;9537;45.594;9.294;2023-05-01T00:15:56;99524.38;;;17.21;75.95
18819;BME280;9537;45.594;9.294;2023-05-01T00:17:08;99532.38;;;17.21;75.48
18819;BME280;9537;45.594;9.294;2023-05-01T00:18:14;99519.84;;;17.22;75.15
18819;BME280;9537;45.594;9.294;2023-05-01T00:19:21;99528.47;;;17.24;74.69
18819;BME280;9537;45.594;9.294;2023-05-01T00:20:28;99530.09;;;17.25;74.24
18819;BME280;9537;45.594;9.294;2023-05-01T00:21:35;99526.00;;;17.22;74.34
18819;BME280;9537;45.594;9.294;2023-05-01T00:22:42;99521.50;;;17.23;74.16
18819;BME280;9537;45.594;9.294;2023-05-01T00:23:49;99518.59;;;17.24;74.03
18819;BME280;9537;45.594;9.294;2023-05-01T00:24:51;99530.09;;;17.25;73.96
18819;BME280;9537;45.594;9.294;2023-05-01T00:25:57;99521.06;;;17.26;73.92
18819;BME280;9537;45.594;9.294;2023-05-01T00:27:00;99526.41;;;17.26;74.06
18819;BME280;9537;45.594;9.294;2023-05-01T00:28:05;99520.66;;;17.22;74.67
18819;BME280;9537;45.594;9.294;2023-05-01T00:29:13;99527.66;;;17.23;74.79
18819;BME280;9537;45.594;9.294;2023-05-01T00:30:19;99525.56;;;17.25;75.08
18819;BME280;9537;45.594;9.294;2023-05-01T00:31:26;99528.22;;;17.25;75.22
18819;BME280;9537;45.594;9.294;2023-05-01T00:32:33;99520.47;;;17.24;75.04
18819;BME280;9537;45.594;9.294;2023-05-01T00:33:40;99521.28;;;17.24;74.90
18819;BME280;9537;45.594;9.294;2023-05-01T00:34:46;99521.50;;;17.23;74.71
18819;BME280;9537;45.594;9.294;2023-05-01T00:35:53;99516.75;;;17.25;74.84
18819;BME280;9537;45.594;9.294;2023-05-01T00:37:00;99520.22;;;17.25;74.85
18819;BME280;9537;45.594;9.294;2023-05-01T00:38:07;99522.31;;;17.23;74.83
18819;BME280;9537;45.594;9.294;2023-05-01T00:39:14;99519.41;;;17.25;74.89
18819;BME280;9537;45.594;9.294;2023-05-01T00:40:21;99520.47;;;17.24;74.80
18819;BME280;9537;45.594;9.294;2023-05-01T00:41:28;99526.00;;;17.22;74.76
18819;BME280;9537;45.594;9.294;2023-05-01T00:42:34;99521.72;;;17.21;75.21
18819;BME280;9537;45.594;9.294;2023-05-01T00:43:41;99515.75;;;17.19;75.60
18819;BME280;9537;45.594;9.294;2023-05-01T00:44:47;99522.16;;;17.18;75.81
18819;BME280;9537;45.594;9.294;2023-05-01T00:45:54;99521.34;;;17.18;75.79
18819;BME280;9537;45.594;9.294;2023-05-01T00:47:00;99509.00;;;17.17;75.85
18819;BME280;9537;45.594;9.294;2023-05-01T00:48:10;99511.09;;;17.15;75.99
18819;BME280;9537;45.594;9.294;2023-05-01T00:49:16;99511.91;;;17.15;76.13
18819;BME280;9537;45.594;9.294;2023-05-01T00:50:23;99507.38;;;17.16;76.18
18819;BME280;9537;45.594;9.294;2023-05-01T00:51:30;99522.78;;;17.14;76.13
18819;BME280;9537;45.594;9.294;2023-05-01T00:52:37;99517.91;;;17.10;76.54
18819;BME280;9537;45.594;9.294;2023-05-01T00:53:39;99517.09;;;17.10;76.82
18819;BME280;9537;45.594;9.294;2023-05-01T00:54:46;99515.47;;;17.09;76.83
18819;BME280;9537;45.594;9.294;2023-05-01T00:55:57;99513.81;;;17.08;77.06
18819;BME280;9537;45.594;9.294;2023-05-01T00:57:04;99509.53;;;17.07;77.13
18819;BME280;9537;45.594;9.294;2023-05-01T00:58:12;99509.75;;;17.05;77.15
18819;BME280;9537;45.594;9.294;2023-05-01T00:59:22;99512.81;;;17.02;77.36
18819;BME280;9537;45.594;9.294;2023-05-01T01:00:28;99504.81;;;17.02;77.26
18819;BME280;9537;45.594;9.294;2023-05-01T01:01:35;99512.03;;;17.02;77.21
18819;BME280;9537;45.594;9.294;2023-05-01T01:02:41;99505.50;;;16.98;77.29
18819;BME280;9537;45.594;9.294;2023-05-01T01:03:46;99504.69;;;16.97;77.37
18819;BME280;9537;45.594;9.294;2023-05-01T01:04:47;99508.38;;;16.96;77.43
18819;BME280;9537;45.594;9.294;2023-05-01T01:05:57;99510.03;;;16.97;77.11
18819;BME280;9537;45.594;9.294;2023-05-01T01:07:10;99506.31;;;16.98;76.94
18819;BME280;9537;45.594;9.294;2023-05-01T01:08:24;99507.34;;;16.97;77.03
18819;BME280;9537;45.594;9.294;2023-05-01T01:09:39;99499.78;;;16.94;76.85
18819;BME280;9537;45.594;9.294;2023-05-01T01:10:52;99502.03;;;16.97;76.78
18819;BME280;9537;45.594;9.294;2023-05-01T01:12:08;99504.09;;;16.95;77.04
18819;BME280;9537;45.594;9.294;2023-05-01T01:13:24;99499.78;;;16.94;77.54
18819;BME280;9537;45.594;9.294;2023-05-01T01:14:39;99493.84;;;16.92;77.88
18819;BME280;9537;45.594;9.294;2023-05-01T01:15:50;99494.84;;;16.91;78.39
18819;BME280;9537;45.594;9.294;2023-05-01T01:17:05;99498.13;;;16.93;78.22
18819;BME280;9537;45.594;9.294;2023-05-01T01:18:18;99495.91;;;16.90;78.46
18819;BME280;9537;45.594;9.294;2023-05-01T01:21:28;99494.50;;;16.87;78.53
18819;BME280;9537;45.594;9.294;2023-05-01T01:22:39;99493.47;;;16.88;78.45
18819;BME280;9537;45.594;9.294;2023-05-01T01:24:11;99504.50;;;16.92;78.15
18819;BME280;9537;45.594;9.294;2023-05-01T01:25:49;99500.00;;;16.93;77.51
18819;BME280;9537;45.594;9.294;2023-05-01T01:27:22;99496.06;;;16.95;77.39
18819;BME280;9537;45.594;9.294;2023-05-01T01:30:26;99493.78;;;16.99;77.92
18819;BME280;9537;45.594;9.294;2023-05-01T01:31:45;99495.03;;;16.96;78.63
18819;BME280;9537;45.594;9.294;2023-05-01T01:33:04;99493.19;;;16.97;78.44
18819;BME280;9537;45.594;9.294;2023-05-01T01:34:19;99496.44;;;16.99;78.10
18819;BME280;9537;45.594;9.294;2023-05-01T01:35:31;99487.63;;;16.98;78.27
18819;BME280;9537;45.594;9.294;2023-05-01T01:36:42;99491.34;;;16.97;78.75
18819;BME280;9537;45.594;9.294;2023-05-01T01:37:57;99496.44;;;16.99;78.87
18819;BME280;9537;45.594;9.294;2023-05-01T01:39:11;99489.06;;;17.01;78.77
18819;BME280;9537;45.594;9.294;2023-05-01T01:40:22;99489.06;;;17.01;78.11
18819;BME280;9537;45.594;9.294;2023-05-01T01:41:32;99492.53;;;17.01;77.86
18819;BME280;9537;45.594;9.294;2023-05-01T01:42:44;99495.19;;;17.01;77.78
18819;BME280;9537;45.594;9.294;2023-05-01T01:43:59;99493.56;;;17.00;77.66
18819;BME280;9537;45.594;9.294;2023-05-01T01:45:12;99490.91;;;17.00;77.85
18819;BME280;9537;45.594;9.294;2023-05-01T01:46:22;99478.38;;;17.01;78.11
18819;BME280;9537;45.594;9.294;2023-05-01T01:47:31;99485.94;;;17.04;78.11
18819;BME280;9537;45.594;9.294;2023-05-01T01:48:41;99485.34;;;17.02;78.25
18819;BME280;9537;45.594;9.294;2023-05-01T01:49:51;99490.31;;;16.98;78.31
18819;BME280;9537;45.594;9.294;2023-05-01T01:50:59;99478.81;;;16.98;78.74
18819;BME280;9537;45.594;9.294;2023-05-01T01:52:11;99492.59;;;16.95;79.05
18819;BME280;9537;45.594;9.294;2023-05-01T01:53:21;99487.69;;;16.92;79.11
18819;BME280;9537;45.594;9.294;2023-05-01T01:54:31;99490.56;;;16.90;79.18
18819;BME280;9537;45.594;9.294;2023-05-01T01:55:42;99492.88;;;16.86;79.11
18819;BME280;9537;45.594;9.294;2023-05-01T01:56:49;99486.31;;;16.82;79.26
18819;BME280;9537;45.594;9.294;2023-05-01T01:57:57;99487.34;;;16.81;79.73
18819;BME280;9537;45.594;9.294;2023-05-01T01:59:04;99484.69;;;16.81;79.96
18819;BME280;9537;45.594;9.294;2023-05-01T02:00:13;99489.84;;;16.76;80.64
18819;BME280;9537;45.594;9.294;2023-05-01T02:01:22;99489.25;;;16.74;80.83
18819;BME280;9537;45.594;9.294;2023-05-01T02:02:30;99485.75;;;16.74;80.71
18819;BME280;9537;45.594;9.294;2023-05-01T02:03:37;99489.69;;;16.71;80.86
18819;BME280;9537;45.594;9.294;2023-05-01T02:04:41;99492.75;;;16.68;81.09
18819;BME280;9537;45.594;9.294;2023-05-01T02:05:49;99489.50;;;16.66;81.43
18819;BME280;9537;45.594;9.294;2023-05-01T02:06:58;99494.22;;;16.64;81.41
18819;BME280;9537;45.594;9.294;2023-05-01T02:08:06;99490.94;;;16.62;81.70
18819;BME280;9537;45.594;9.294;2023-05-01T02:09:10;99492.81;;;16.61;81.33
18819;BME280;9537;45.594;9.294;2023-05-01T02:10:17;99489.53;;;16.59;81.17
18819;BME280;9537;45.594;9.294;2023-05-01T02:11:26;99491.19;;;16.60;81.32
18819;BME280;9537;45.594;9.294;2023-05-01T02:12:34;99490.75;;;16.63;81.21
18819;BME280;9537;45.594;9.294;2023-05-01T02:13:38;99496.28;;;16.62;80.93
18819;BME280;9537;45.594;9.294;2023-05-01T02:14:45;99496.09;;;16.63;81.02
18819;BME280;9537;45.594;9.294;2023-05-01T02:15:55;99491.56;;;16.64;81.02
18819;BME280;9537;45.594;9.294;2023-05-01T02:17:03;99489.72;;;16.64;81.06
18819;BME280;9537;45.594;9.294;2023-05-01T02:18:11;99493.63;;;16.62;81.33
18819;BME280;9537;45.594;9.294;2023-05-01T02:19:18;99486.66;;;16.61;81.71
18819;BME280;9537;45.594;9.294;2023-05-01T02:20:26;99488.28;;;16.62;81.93
18819;BME280;9537;45.594;9.294;2023-05-01T02:21:36;99489.59;;;16.53;82.58
18819;BME280;9537;45.594;9.294;2023-05-01T02:22:46;99483.00;;;16.55;82.87
18819;BME280;9537;45.594;9.294;2023-05-01T02:23:53;99480.16;;;16.57;82.82
18819;BME280;9537;45.594;9.294;2023-05-01T02:25:02;99480.16;;;16.57;82.83
18819;BME280;9537;45.594;9.294;2023-05-01T02:26:12;99478.06;;;16.59;82.74
18819;BME280;9537;45.594;9.294;2023-05-01T02:27:23;99479.09;;;16.58;82.60
18819;BME280;9537;45.594;9.294;2023-05-01T02:28:29;99489.53;;;16.59;82.88
18819;BME280;9537;45.594;9.294;2023-05-01T02:29:36;99476.19;;;16.59;82.80
18819;BME280;9537;45.594;9.294;2023-05-01T02:30:37;99471.09;;;16.58;82.93
18819;BME280;9537;45.594;9.294;2023-05-01T02:31:44;99468.19;;;16.59;83.27
18819;BME280;9537;45.594;9.294;2023-05-01T02:32:50;99468.63;;;16.56;83.14
18819;BME280;9537;45.594;9.294;2023-05-01T02:33:58;99474.81;;;16.57;83.31
18819;BME280;9537;45.594;9.294;2023-05-01T02:35:04;99467.41;;;16.59;83.34
18819;BME280;9537;45.594;9.294;2023-05-01T02:36:11;99464.16;;;16.57;83.56
18819;BME280;9537;45.594;9.294;2023-05-01T02:37:19;99461.88;;;16.54;83.73
18819;BME280;9537;45.594;9.294;2023-05-01T02:38:27;99470.13;;;16.52;83.47
18819;BME280;9537;45.594;9.294;2023-05-01T02:39:34;99468.91;;;16.48;83.78
18819;BME280;9537;45.594;9.294;2023-05-01T02:40:43;99468.31;;;16.46;83.21
18819;BME280;9537;45.594;9.294;2023-05-01T02:41:51;99463.78;;;16.47;83.67
18819;BME280;9537;45.594;9.294;2023-05-01T02:43:02;99461.56;;;16.43;84.47
18819;BME280;9537;45.594;9.294;2023-05-01T02:44:10;99470.97;;;16.46;84.39
18819;BME280;9537;45.594;9.294;2023-05-01T02:45:20;99469.13;;;16.47;84.25
18819;BME280;9537;45.594;9.294;2023-05-01T02:46:29;99468.09;;;16.48;84.07
18819;BME280;9537;45.594;9.294;2023-05-01T02:47:38;99476.09;;;16.48;83.90
18819;BME280;9537;45.594;9.294;2023-05-01T02:48:41;99471.34;;;16.50;84.02
18819;BME280;9537;45.594;9.294;2023-05-01T02:49:50;99468.69;;;16.50;83.76
18819;BME280;9537;45.594;9.294;2023-05-01T02:50:56;99469.50;;;16.50;83.86
18819;BME280;9537;45.594;9.294;2023-05-01T02:52:04;99469.75;;;16.49;83.92
18819;BME280;9537;45.594;9.294;2023-05-01T02:53:12;99467.88;;;16.49;83.85
18819;BME280;9537;45.594;9.294;2023-05-01T02:54:20;99468.50;;;16.51;83.79
18819;BME280;9537;45.594;9.294;2023-05-01T02:55:27;99466.84;;;16.50;83.75
18819;BME280;9537;45.594;9.294;2023-05-01T02:56:34;99467.44;;;16.52;83.72
18819;BME280;9537;45.594;9.294;2023-05-01T02:57:40;99469.06;;;16.53;83.63
18819;BME280;9537;45.594;9.294;2023-05-01T02:58:47;99463.16;;;16.51;83.66
18819;BME280;9537;45.594;9.294;2023-05-01T02:59:49;99465.81;;;16.51;83.69
18819;BME280;9537;45.594;9.294;2023-05-01T03:00:56;99470.72;;;16.54;83.76
18819;BME280;9537;45.594;9.294;2023-05-01T03:02:02;99469.06;;;16.53;83.82
18819;BME280;9537;45.594;9.294;2023-05-01T03:03:09;99467.03;;;16.55;84.03
18819;BME280;9537;45.594;9.294;2023-05-01T03:04:16;99471.31;;;16.56;84.21
18819;BME280;9537;45.594;9.294;2023-05-01T03:05:23;99461.47;;;16.57;84.32
18819;BME280;9537;45.594;9.294;2023-05-01T03:06:29;99465.78;;;16.58;84.74
18819;BME280;9537;45.594;9.294;2023-05-01T03:07:36;99467.19;;;16.60;84.55
18819;BME280;9537;45.594;9.294;2023-05-01T03:08:44;99470.66;;;16.61;83.70
18819;BME280;9537;45.594;9.294;2023-05-01T03:09:52;99467.78;;;16.62;83.97
18819;BME280;9537;45.594;9.294;2023-05-01T03:10:57;99466.97;;;16.62;83.84
18819;BME280;9537;45.594;9.294;2023-05-01T03:12:04;99470.66;;;16.61;83.80
18819;BME280;9537;45.594;9.294;2023-05-01T03:13:11;99464.53;;;16.60;83.91
18819;BME280;9537;45.594;9.294;2023-05-01T03:14:17;99470.06;;;16.59;83.99
18819;BME280;9537;45.594;9.294;2023-05-01T03:15:24;99466.81;;;16.57;84.01
18819;BME280;9537;45.594;9.294;2023-05-01T03:16:31;99472.16;;;16.57;84.29
18819;BME280;9537;45.594;9.294;2023-05-01T03:17:32;99466.22;;;16.55;84.15
18819;BME280;9537;45.594;9.294;2023-05-01T03:18:39;99469.69;;;16.55;84.32
18819;BME280;9537;45.594;9.294;2023-05-01T03:19:45;99476.88;;;16.55;84.59
18819;BME280;9537;45.594;9.294;2023-05-01T03:20:53;99476.88;;;16.55;84.44
18819;BME280;9537;45.594;9.294;2023-05-01T03:21:59;99471.53;;;16.55;84.58
18819;BME280;9537;45.594;9.294;2023-05-01T03:23:06;99476.63;;;16.56;84.61
18819;BME280;9537;45.594;9.294;2023-05-01T03:24:13;99481.16;;;16.56;85.00
18819;BME280;9537;45.594;9.294;2023-05-01T03:25:20;99478.50;;;16.56;84.89
18819;BME280;9537;45.594;9.294;2023-05-01T03:26:26;99480.97;;;16.57;85.05
18819;BME280;9537;45.594;9.294;2023-05-01T03:27:34;99479.31;;;16.56;85.25
18819;BME280;9537;45.594;9.294;2023-05-01T03:28:40;99479.31;;;16.56;85.27
18819;BME280;9537;45.594;9.294;2023-05-01T03:29:47;99484.19;;;16.59;85.27
18819;BME280;9537;45.594;9.294;2023-05-01T03:30:54;99478.88;;;16.59;85.19
18819;BME280;9537;45.594;9.294;2023-05-01T03:32:01;99480.53;;;16.60;85.41
18819;BME280;9537;45.594;9.294;2023-05-01T03:33:07;99475.38;;;16.59;85.65
18819;BME280;9537;45.594;9.294;2023-05-01T03:34:14;99472.34;;;16.55;86.28
18819;BME280;9537;45.594;9.294;2023-05-01T03:35:15;99470.94;;;16.53;86.54
18819;BME280;9537;45.594;9.294;2023-05-01T03:36:22;99479.91;;;16.58;86.31
18819;BME280;9537;45.594;9.294;2023-05-01T03:37:30;99471.09;;;16.58;86.48
18819;BME280;9537;45.594;9.294;2023-05-01T03:38:38;99472.16;;;16.57;86.66
18819;BME280;9537;45.594;9.294;2023-05-01T03:39:46;99481.53;;;16.59;86.65
18819;BME280;9537;45.594;9.294;2023-05-01T03:40:52;99482.38;;;16.60;86.64
18819;BME280;9537;45.594;9.294;2023-05-01T03:41:59;99481.78;;;16.58;87.20
18819;BME280;9537;45.594;9.294;2023-05-01T03:43:05;99488.34;;;16.55;87.28
18819;BME280;9537;45.594;9.294;2023-05-01T03:44:12;99486.72;;;16.54;87.22
18819;BME280;9537;45.594;9.294;2023-05-01T03:45:18;99486.72;;;16.54;86.83
18819;BME280;9537;45.594;9.294;2023-05-01T03:46:25;99491.44;;;16.52;86.21
18819;BME280;9537;45.594;9.294;2023-05-01T03:47:31;99485.50;;;16.50;85.70
18819;BME280;9537;45.594;9.294;2023-05-01T03:48:38;99489.81;;;16.51;85.56
18819;BME280;9537;45.594;9.294;2023-05-01T03:49:44;99492.50;;;16.51;85.59
18819;BME280;9537;45.594;9.294;2023-05-01T03:50:51;99492.25;;;16.53;85.30
18819;BME280;9537;45.594;9.294;2023-05-01T03:51:57;99490.19;;;16.55;85.12
18819;BME280;9537;45.594;9.294;2023-05-01T03:53:04;99489.16;;;16.56;85.13
18819;BME280;9537;45.594;9.294;2023-05-01T03:54:10;99490.81;;;16.57;85.07
18819;BME280;9537;45.594;9.294;2023-05-01T03:55:18;99488.72;;;16.59;84.68
18819;BME280;9537;45.594;9.294;2023-05-01T03:56:24;99488.34;;;16.55;84.84
18819;BME280;9537;45.594;9.294;2023-05-01T03:57:32;99492.88;;;16.55;85.11
18819;BME280;9537;45.594;9.294;2023-05-01T03:58:38;99493.88;;;16.54;85.25
18819;BME280;9537;45.594;9.294;2023-05-01T03:59:45;99489.59;;;16.53;84.94
18819;BME280;9537;45.594;9.294;2023-05-01T04:00:48;99495.53;;;16.55;84.99
18819;BME280;9537;45.594;9.294;2023-05-01T04:01:55;99496.16;;;16.57;84.65
18819;BME280;9537;45.594;9.294;2023-05-01T04:02:57;99491.00;;;16.55;84.59
18819;BME280;9537;45.594;9.294;2023-05-01T04:04:04;99498.19;;;16.55;84.96
18819;BME280;9537;45.594;9.294;2023-05-01T04:05:10;99489.38;;;16.54;85.25
18819;BME280;9537;45.594;9.294;2023-05-01T04:06:13;99492.50;;;16.51;85.29
18819;BME280;9537;45.594;9.294;2023-05-01T04:07:19;99500.25;;;16.53;85.23
18819;BME280;9537;45.594;9.294;2023-05-01T04:08:26;99486.72;;;16.54;84.76
18819;BME280;9537;45.594;9.294;2023-05-01T04:09:31;99493.06;;;16.53;84.83
18819;BME280;9537;45.594;9.294;2023-05-01T04:10:40;99487.75;;;16.53;84.79
18819;BME280;9537;45.594;9.294;2023-05-01T04:11:47;99488.53;;;16.54;84.70
18819;BME280;9537;45.594;9.294;2023-05-01T04:12:49;99485.69;;;16.55;84.60
18819;BME280;9537;45.594;9.294;2023-05-01T04:13:56;99488.34;;;16.55;84.87
18819;BME280;9537;45.594;9.294;2023-05-01T04:15:03;99490.41;;;16.53;84.75
18819;BME280;9537;45.594;9.294;2023-05-01T04:16:06;99484.50;;;16.51;85.01
18819;BME280;9537;45.594;9.294;2023-05-01T04:17:12;99486.31;;;16.51;85.50
18819;BME280;9537;45.594;9.294;2023-05-01T04:18:18;99488.16;;;16.50;85.67
18819;BME280;9537;45.594;9.294;2023-05-01T04:19:24;99488.78;;;16.52;85.94
18819;BME280;9537;45.594;9.294;2023-05-01T04:20:31;99490.03;;;16.50;86.06
18819;BME280;9537;45.594;9.294;2023-05-01T04:21:38;99493.72;;;16.49;86.07
18819;BME280;9537;45.594;9.294;2023-05-01T04:22:45;99491.28;;;16.47;86.32
18819;BME280;9537;45.594;9.294;2023-05-01T04:23:52;99494.53;;;16.49;86.40
18819;BME280;9537;45.594;9.294;2023-05-01T04:24:58;99497.22;;;16.49;86.48
18819;BME280;9537;45.594;9.294;2023-05-01T04:26:07;99499.25;;;16.47;86.73
18819;BME280;9537;45.594;9.294;2023-05-01T04:27:14;99495.34;;;16.50;86.52
18819;BME280;9537;45.594;9.294;2023-05-01T04:28:22;99499.88;;;16.49;86.27
18819;BME280;9537;45.594;9.294;2023-05-01T04:29:28;99498.22;;;16.48;86.65
18819;BME280;9537;45.594;9.294;2023-05-01T04:30:35;99495.78;;;16.47;87.00
18819;BME280;9537;45.594;9.294;2023-05-01T04:31:41;99500.50;;;16.44;87.21
18819;BME280;9537;45.594;9.294;2023-05-01T04:32:48;99497.03;;;16.44;87.41
18819;BME280;9537;45.594;9.294;2023-05-01T04:33:54;99495.59;;;16.41;87.76
18819;BME280;9537;45.594;9.294;2023-05-01T04:35:01;99497.25;;;16.42;87.84
18819;BME280;9537;45.594;9.294;2023-05-01T04:36:09;99507.69;;;16.44;87.54
18819;BME280;9537;45.594;9.294;2023-05-01T04:37:16;99509.31;;;16.45;87.79
18819;BME280;9537;45.594;9.294;2023-05-01T04:38:18;99499.50;;;16.46;87.34
18819;BME280;9537;45.594;9.294;2023-05-01T04:39:25;99504.22;;;16.43;86.98
18819;BME280;9537;45.594;9.294;2023-05-01T04:40:31;99507.50;;;16.46;86.73
18819;BME280;9537;45.594;9.294;2023-05-01T04:41:35;99507.50;;;16.46;87.23
18819;BME280;9537;45.594;9.294;2023-05-01T04:42:40;99510.16;;;16.46;87.02
18819;BME280;9537;45.594;9.294;2023-05-01T04:43:48;99503.19;;;16.44;86.93
18819;BME280;9537;45.594;9.294;2023-05-01T04:44:54;99520.22;;;16.43;86.75
18819;BME280;9537;45.594;9.294;2023-05-01T04:46:02;99507.91;;;16.42;86.73
18819;BME280;9537;45.594;9.294;2023-05-01T04:47:08;99514.66;;;16.45;86.42
18819;BME280;9537;45.594;9.294;2023-05-01T04:48:10;99511.16;;;16.44;86.31
18819;BME280;9537;45.594;9.294;2023-05-01T04:49:16;99514.66;;;16.45;86.13
18819;BME280;9537;45.594;9.294;2023-05-01T04:50:23;99517.13;;;16.47;86.16
18819;BME280;9537;45.594;9.294;2023-05-01T04:51:29;99515.50;;;16.46;86.37
18819;BME280;9537;45.594;9.294;2023-05-01T04:52:36;99517.13;;;16.47;86.08
18819;BME280;9537;45.594;9.294;2023-05-01T04:53:42;99520.41;;;16.42;86.34
18819;BME280;9537;45.594;9.294;2023-05-01T04:54:49;99523.06;;;16.42;86.11
18819;BME280;9537;45.594;9.294;2023-05-01T04:55:55;99524.13;;;16.41;86.10
18819;BME280;9537;45.594;9.294;2023-05-01T04:57:03;99524.13;;;16.41;86.20
18819;BME280;9537;45.594;9.294;2023-05-01T04:58:09;99524.31;;;16.39;86.48
18819;BME280;9537;45.594;9.294;2023-05-01T04:59:16;99527.81;;;16.40;86.98
18819;BME280;9537;45.594;9.294;2023-05-01T05:00:24;99528.84;;;16.39;86.93
18819;BME280;9537;45.594;9.294;2023-05-01T05:01:30;99526.16;;;16.39;86.87
18819;BME280;9537;45.594;9.294;2023-05-01T05:02:37;99526.16;;;16.39;86.68
18819;BME280;9537;45.594;9.294;2023-05-01T05:03:43;99534.78;;;16.41;86.57
18819;BME280;9537;45.594;9.294;2023-05-01T05:04:50;99531.31;;;16.40;86.42
18819;BME280;9537;45.594;9.294;2023-05-01T05:05:58;99532.13;;;16.41;86.49
18819;BME280;9537;45.594;9.294;2023-05-01T05:07:05;99532.94;;;16.41;86.38
18819;BME280;9537;45.594;9.294;2023-05-01T05:08:11;99533.16;;;16.40;86.52
18819;BME280;9537;45.594;9.294;2023-05-01T05:09:18;99533.75;;;16.42;86.67
18819;BME280;9537;45.594;9.294;2023-05-01T05:10:24;99538.25;;;16.41;86.70
18819;BME280;9537;45.594;9.294;2023-05-01T05:11:31;99538.25;;;16.41;87.01
18819;BME280;9537;45.594;9.294;2023-05-01T05:12:38;99539.50;;;16.39;86.92
18819;BME280;9537;45.594;9.294;2023-05-01T05:13:45;99530.91;;;16.37;87.24
18819;BME280;9537;45.594;9.294;2023-05-01T05:14:52;99528.66;;;16.34;87.01
18819;BME280;9537;45.594;9.294;2023-05-01T05:15:59;99524.53;;;16.38;87.00
18819;BME280;9537;45.594;9.294;2023-05-01T05:17:05;99528.25;;;16.37;87.15
18819;BME280;9537;45.594;9.294;2023-05-01T05:18:10;99529.06;;;16.37;87.03
18819;BME280;9537;45.594;9.294;2023-05-01T05:19:16;99526.59;;;16.36;86.95
18819;BME280;9537;45.594;9.294;2023-05-01T05:20:23;99528.44;;;16.35;86.57
18819;BME280;9537;45.594;9.294;2023-05-01T05:21:29;99527.63;;;16.35;86.77
18819;BME280;9537;45.594;9.294;2023-05-01T05:22:36;99529.50;;;16.34;86.57
18819;BME280;9537;45.594;9.294;2023-05-01T05:23:42;99535.63;;;16.35;86.72
18819;BME280;9537;45.594;9.294;2023-05-01T05:24:52;99527.63;;;16.35;87.15
18819;BME280;9537;45.594;9.294;2023-05-01T05:25:54;99531.13;;;16.35;87.24
18819;BME280;9537;45.594;9.294;2023-05-01T05:27:02;99532.16;;;16.34;87.12
18819;BME280;9537;45.594;9.294;2023-05-01T05:28:10;99531.53;;;16.32;87.42
18819;BME280;9537;45.594;9.294;2023-05-01T05:29:12;99536.06;;;16.32;87.47
18819;BME280;9537;45.594;9.294;2023-05-01T05:30:18;99536.88;;;16.32;87.54
18819;BME280;9537;45.594;9.294;2023-05-01T05:31:21;99536.66;;;16.34;86.63
18819;BME280;9537;45.594;9.294;2023-05-01T05:32:28;99536.66;;;16.34;86.47
18819;BME280;9537;45.594;9.294;2023-05-01T05:33:35;99534.59;;;16.36;86.42
18819;BME280;9537;45.594;9.294;2023-05-01T05:34:41;99536.25;;;16.37;85.82
18819;BME280;9537;45.594;9.294;2023-05-01T05:35:50;99543.63;;;16.35;86.04
18819;BME280;9537;45.594;9.294;2023-05-01T05:36:57;99545.69;;;16.33;86.29
18819;BME280;9537;45.594;9.294;2023-05-01T05:38:04;99537.69;;;16.33;86.68
18819;BME280;9537;45.594;9.294;2023-05-01T05:39:09;99531.53;;;16.32;87.06
18819;BME280;9537;45.594;9.294;2023-05-01T05:40:18;99538.31;;;16.35;86.87
18819;BME280;9537;45.594;9.294;2023-05-01T05:41:24;99546.06;;;16.36;86.68
18819;BME280;9537;45.594;9.294;2023-05-01T05:42:31;99548.34;;;16.33;86.22
18819;BME280;9537;45.594;9.294;2023-05-01T05:43:35;99543.03;;;16.33;86.94
18819;BME280;9537;45.594;9.294;2023-05-01T05:44:42;99547.31;;;16.34;87.05
18819;BME280;9537;45.594;9.294;2023-05-01T05:45:47;99544.66;;;16.34;87.38
18819;BME280;9537;45.594;9.294;2023-05-01T05:46:55;99551.00;;;16.33;87.42
18819;BME280;9537;45.594;9.294;2023-05-01T05:48:00;99541.41;;;16.32;88.05
18819;BME280;9537;45.594;9.294;2023-05-01T05:49:08;99549.38;;;16.32;88.08
18819;BME280;9537;45.594;9.294;2023-05-01T05:50:14;99545.06;;;16.31;87.72
18819;BME280;9537;45.594;9.294;2023-05-01T05:51:21;99547.53;;;16.32;87.53
18819;BME280;9537;45.594;9.294;2023-05-01T05:52:27;99536.06;;;16.32;87.84
18819;BME280;9537;45.594;9.294;2023-05-01T05:53:29;99544.66;;;16.34;88.14
18819;BME280;9537;45.594;9.294;2023-05-01T05:54:36;99544.66;;;16.34;88.32
18819;BME280;9537;45.594;9.294;2023-05-01T05:55:43;99532.34;;;16.33;88.70
18819;BME280;9537;45.594;9.294;2023-05-01T05:56:49;99535.84;;;16.33;88.73
18819;BME280;9537;45.594;9.294;2023-05-01T05:57:56;99540.59;;;16.31;88.75
18819;BME280;9537;45.594;9.294;2023-05-01T05:58:59;99536.66;;;16.34;89.16
18819;BME280;9537;45.594;9.294;2023-05-01T06:00:09;99538.50;;;16.33;88.06
18819;BME280;9537;45.594;9.294;2023-05-01T06:01:10;99533.41;;;16.32;88.56
18819;BME280;9537;45.594;9.294;2023-05-01T06:02:17;99529.91;;;16.31;89.00
18819;BME280;9537;45.594;9.294;2023-05-01T06:03:18;99534.41;;;16.31;89.19
18819;BME280;9537;45.594;9.294;2023-05-01T06:04:25;99538.13;;;16.30;89.26
18819;BME280;9537;45.594;9.294;2023-05-01T06:05:31;99527.47;;;16.30;89.61